Terminal Aerodrome Forecast
Issued by NWS Kansas City/Pleasant Hill, MO

Home | Current Version | Previous Version | Text Only | Print | Product List | Glossary On
Versions: 1 2 3 4 5 6 7 8 9 10 11 12 13 14 15 16
000
FTUS43 KEAX 130900 AAC
TAFMCI
TAF AMD
KMCI 130923Z 1309/1406 36010KT P6SM -SHRA VCTS FEW035 BKN070CB
      TEMPO 1309/1311 3SM -SHRA BR BKN035
     FM131200 36007KT P6SM VCSH BKN080
     FM131500 01010KT P6SM FEW030=

USA.gov is the U.S. government's official web portal to all federal, state and local government web resources and services.